createdAt,value
2023-04-29T00:00:49.916Z,0.80
2023-04-29T00:03:20.157Z,0.82
2023-04-29T00:05:49.874Z,0.60
2023-04-29T00:08:19.296Z,0.38
2023-04-29T00:10:51.232Z,0.60
2023-04-29T00:13:21.436Z,0.85
2023-04-29T00:15:50.958Z,0.75
2023-04-29T00:18:20.416Z,0.40
2023-04-29T00:20:49.745Z,0.57
2023-04-29T00:23:19.047Z,0.52
2023-04-29T00:25:53.490Z,0.50
2023-04-29T00:28:23.048Z,0.68
2023-04-29T00:30:53.161Z,0.82
2023-04-29T00:33:22.839Z,0.47
2023-04-29T00:35:52.310Z,1.13
2023-04-29T00:38:22.489Z,0.63
2023-04-29T00:40:54.914Z,0.40
2023-04-29T00:43:24.452Z,0.55
2023-04-29T00:45:54.440Z,0.60
2023-04-29T00:48:23.864Z,0.90
2023-04-29T00:50:53.520Z,0.57
2023-04-29T00:53:23.665Z,0.30
2023-04-29T00:55:56.045Z,0.70
2023-04-29T00:58:33.663Z,0.70
2023-04-29T01:01:03.941Z,0.63
2023-04-29T01:03:34.411Z,0.55
2023-04-29T01:06:11.975Z,0.43
2023-04-29T01:08:57.134Z,0.60
2023-04-29T01:11:38.286Z,0.63
2023-04-29T01:14:08.581Z,0.75
2023-04-29T01:16:43.358Z,0.20
2023-04-29T01:19:43.167Z,0.80
2023-04-29T01:22:12.958Z,1.27
2023-04-29T01:24:45.310Z,0.70
2023-04-29T01:27:26.470Z,1.10
2023-04-29T01:30:03.312Z,0.38
2023-04-29T01:32:50.210Z,0.77
2023-04-29T01:35:33.488Z,0.73
2023-04-29T01:38:12.137Z,0.60
2023-04-29T01:40:54.926Z,0.68
2023-04-29T01:43:27.605Z,0.50
2023-04-29T01:45:59.493Z,0.40
2023-04-29T01:48:29.841Z,0.50
2023-04-29T01:50:59.467Z,0.68
2023-04-29T01:53:29.145Z,0.60
2023-04-29T01:56:01.549Z,0.60
2023-04-29T01:58:31.232Z,0.60
2023-04-29T02:01:00.926Z,0.32
2023-04-29T02:03:31.084Z,0.80
2023-04-29T02:06:00.902Z,0.50
2023-04-29T02:08:30.732Z,0.80
2023-04-29T02:11:03.104Z,0.75
2023-04-29T02:13:32.811Z,0.77
2023-04-29T02:16:10.664Z,0.47
2023-04-29T02:18:40.898Z,0.57
2023-04-29T02:21:10.937Z,0.88
2023-04-29T02:23:40.885Z,0.90
2023-04-29T02:26:14.268Z,0.55
2023-04-29T02:28:44.586Z,0.43
2023-04-29T02:31:14.413Z,0.52
2023-04-29T02:33:44.483Z,0.60
2023-04-29T02:36:14.193Z,0.63
2023-04-29T02:38:43.849Z,0.45
2023-04-29T02:41:19.691Z,0.50
2023-04-29T02:43:49.634Z,0.55
2023-04-29T02:46:19.482Z,0.43
2023-04-29T02:48:49.276Z,0.85
2023-04-29T02:51:18.979Z,0.52
2023-04-29T02:53:50.335Z,0.45
2023-04-29T02:56:23.563Z,0.30
2023-04-29T02:58:53.288Z,0.70
2023-04-29T03:01:24.510Z,0.40
2023-04-29T03:03:55.027Z,0.38
2023-04-29T03:06:24.983Z,0.65
2023-04-29T03:08:55.512Z,0.80
2023-04-29T03:11:27.832Z,0.43
2023-04-29T03:13:57.610Z,0.77
2023-04-29T03:16:28.949Z,0.57
2023-04-29T03:18:58.701Z,0.50
2023-04-29T03:21:30.045Z,0.77
2023-04-29T03:23:59.772Z,0.57
2023-04-29T03:26:32.055Z,0.88
2023-04-29T03:29:01.877Z,0.88
2023-04-29T03:31:31.661Z,0.47
2023-04-29T03:34:04.306Z,0.55
2023-04-29T03:36:34.015Z,0.77
2023-04-29T03:39:04.843Z,0.47
2023-04-29T03:41:37.223Z,0.38
2023-04-29T03:44:07.675Z,0.30
2023-04-29T03:46:37.551Z,0.60
2023-04-29T03:49:07.669Z,0.65
2023-04-29T03:51:37.416Z,0.80
2023-04-29T03:54:07.744Z,0.90
2023-04-29T03:56:40.050Z,0.85
2023-04-29T03:59:09.895Z,0.63
2023-04-29T04:01:39.981Z,1.00
2023-04-29T04:04:09.930Z,0.73
2023-04-29T04:06:39.860Z,0.57
2023-04-29T04:09:09.554Z,0.70
2023-04-29T04:11:42.308Z,1.42
2023-04-29T04:14:12.026Z,0.82
2023-04-29T04:16:41.764Z,0.73
2023-04-29T04:19:11.589Z,1.15
2023-04-29T04:21:41.226Z,0.45
2023-04-29T04:24:11.232Z,1.00
2023-04-29T04:26:44.344Z,0.88
2023-04-29T04:29:14.370Z,0.85
2023-04-29T04:31:46.748Z,0.88
2023-04-29T04:34:16.810Z,0.63
2023-04-29T04:36:47.004Z,0.80
2023-04-29T04:39:16.682Z,0.93
2023-04-29T04:41:48.952Z,1.05
2023-04-29T04:44:18.685Z,0.98
2023-04-29T04:46:48.472Z,1.23
2023-04-29T04:49:18.312Z,1.02
2023-04-29T04:51:48.044Z,0.70
2023-04-29T04:54:17.810Z,0.80
2023-04-29T04:56:52.375Z,0.70
2023-04-29T04:59:22.152Z,1.33
2023-04-29T05:01:51.843Z,1.25
2023-04-29T05:04:21.643Z,0.85
2023-04-29T05:06:51.567Z,0.60
2023-04-29T05:09:21.198Z,1.10
2023-04-29T05:11:54.233Z,0.65
2023-04-29T05:14:23.913Z,0.60
2023-04-29T05:16:53.684Z,0.77
2023-04-29T05:19:23.339Z,1.10
2023-04-29T05:21:53.235Z,1.63
2023-04-29T05:24:24.106Z,1.25
2023-04-29T05:26:56.446Z,0.60
2023-04-29T05:29:27.392Z,1.13
2023-04-29T05:31:57.062Z,0.85
2023-04-29T05:34:26.819Z,0.93
2023-04-29T05:36:57.984Z,0.80
2023-04-29T05:39:27.677Z,0.80
2023-04-29T05:42:00.174Z,1.02
2023-04-29T05:44:31.935Z,1.50
2023-04-29T05:47:03.782Z,0.77
2023-04-29T05:49:33.505Z,0.63
2023-04-29T05:52:07.253Z,0.50
2023-04-29T05:54:37.458Z,0.73
2023-04-29T05:57:09.779Z,1.67
2023-04-29T05:59:39.436Z,0.70
2023-04-29T06:02:11.111Z,0.50
2023-04-29T06:04:41.849Z,0.85
2023-04-29T06:07:12.841Z,1.23
2023-04-29T06:09:43.222Z,1.17
2023-04-29T06:12:15.573Z,0.80
2023-04-29T06:14:45.171Z,1.42
2023-04-29T06:17:15.261Z,0.73
2023-04-29T06:19:44.913Z,0.55
2023-04-29T06:22:14.610Z,1.17
2023-04-29T06:24:44.291Z,1.25
2023-04-29T06:27:16.584Z,0.77
2023-04-29T06:29:46.422Z,0.53
2023-04-29T06:32:16.484Z,1.40
2023-04-29T06:34:46.508Z,1.20
2023-04-29T06:37:16.531Z,0.70
2023-04-29T06:39:46.221Z,0.85
2023-04-29T06:42:18.599Z,0.70
2023-04-29T06:44:48.411Z,1.02
2023-04-29T06:47:18.291Z,1.10
2023-04-29T06:49:48.045Z,0.68
2023-04-29T06:52:17.921Z,1.13
2023-04-29T06:54:47.809Z,0.98
2023-04-29T06:57:21.001Z,0.50
2023-04-29T06:59:51.083Z,1.00
2023-04-29T07:02:21.742Z,0.93
2023-04-29T07:04:52.924Z,0.75
2023-04-29T07:07:23.671Z,0.65
2023-04-29T07:09:54.841Z,0.32
2023-04-29T07:12:27.799Z,0.63
2023-04-29T07:14:58.134Z,1.02
2023-04-29T07:17:27.891Z,0.55
2023-04-29T07:19:57.683Z,0.60
2023-04-29T07:22:27.606Z,1.07
2023-04-29T07:24:57.855Z,0.60
2023-04-29T07:27:30.722Z,0.77
2023-04-29T07:30:05.084Z,0.60
2023-04-29T07:32:35.631Z,1.00
2023-04-29T07:35:05.503Z,0.45
2023-04-29T07:37:35.284Z,0.80
2023-04-29T07:40:05.103Z,0.65
2023-04-29T07:42:37.561Z,0.70
2023-04-29T07:45:08.641Z,0.77
2023-04-29T07:47:38.712Z,0.47
2023-04-29T07:50:09.652Z,0.52
2023-04-29T07:52:39.401Z,0.25
2023-04-29T07:55:10.095Z,0.85
2023-04-29T07:57:42.381Z,0.70
2023-04-29T08:00:13.364Z,0.68
2023-04-29T08:02:43.175Z,1.00
2023-04-29T08:05:13.397Z,0.65
2023-04-29T08:07:43.326Z,0.60
2023-04-29T08:10:13.366Z,1.13
2023-04-29T08:12:48.592Z,0.80
2023-04-29T08:15:18.849Z,1.08
2023-04-29T08:17:48.672Z,1.00
2023-04-29T08:20:18.416Z,0.65
2023-04-29T08:22:48.199Z,0.40
2023-04-29T08:25:17.983Z,0.60
2023-04-29T08:27:50.392Z,1.00
2023-04-29T08:30:20.361Z,0.47
2023-04-29T08:32:50.249Z,0.52
2023-04-29T08:35:19.988Z,0.93
2023-04-29T08:37:49.656Z,0.52
2023-04-29T08:40:19.611Z,0.90
2023-04-29T08:42:53.157Z,0.75
2023-04-29T08:45:23.455Z,0.80
2023-04-29T08:47:54.454Z,0.52
2023-04-29T08:50:24.168Z,0.55
2023-04-29T08:52:54.189Z,0.80
2023-04-29T08:55:24.699Z,0.77
2023-04-29T08:57:58.277Z,0.52
2023-04-29T09:00:28.256Z,0.93
2023-04-29T09:03:05.018Z,0.73
2023-04-29T09:05:37.346Z,0.90
2023-04-29T09:08:08.808Z,0.52
2023-04-29T09:10:40.410Z,0.65
2023-04-29T09:13:25.381Z,0.80
2023-04-29T09:15:55.602Z,0.60
2023-04-29T09:18:46.852Z,0.75
2023-04-29T09:21:22.402Z,0.70
2023-04-29T09:23:54.004Z,0.47
2023-04-29T09:26:24.904Z,0.75
2023-04-29T09:29:14.375Z,0.38
2023-04-29T09:31:44.824Z,0.60
2023-04-29T09:34:15.348Z,0.85
2023-04-29T09:36:48.037Z,0.65
2023-04-29T09:39:19.110Z,0.50
2023-04-29T09:42:03.778Z,0.57
2023-04-29T09:44:38.660Z,0.40
2023-04-29T09:47:09.576Z,0.32
2023-04-29T09:49:41.985Z,0.68
2023-04-29T09:52:13.841Z,0.60
2023-04-29T09:54:45.345Z,0.77
2023-04-29T09:57:16.111Z,0.70
2023-04-29T09:59:48.372Z,0.45
2023-04-29T10:02:20.847Z,0.55
2023-04-29T10:04:57.790Z,0.40
2023-04-29T10:07:31.069Z,0.47
2023-04-29T10:10:01.045Z,0.52
2023-04-29T10:12:30.743Z,0.60
2023-04-29T10:15:07.042Z,0.50
2023-04-29T10:17:46.654Z,0.50
2023-04-29T10:20:18.484Z,0.75
2023-04-29T10:22:49.762Z,0.50
2023-04-29T10:25:22.371Z,0.55
2023-04-29T10:27:53.755Z,0.30
2023-04-29T10:30:26.302Z,0.90
2023-04-29T10:32:57.294Z,0.55
2023-04-29T10:35:27.204Z,0.52
2023-04-29T10:37:58.947Z,0.68
2023-04-29T10:40:34.375Z,0.85
2023-04-29T10:43:04.826Z,0.50
2023-04-29T10:45:37.872Z,0.77
2023-04-29T10:48:22.070Z,0.57
2023-04-29T10:51:06.719Z,0.60
2023-04-29T10:53:36.901Z,0.80
2023-04-29T10:56:09.460Z,0.95
2023-04-29T10:58:45.052Z,0.55
2023-04-29T11:01:19.666Z,0.57
2023-04-29T11:03:55.316Z,0.77
2023-04-29T11:06:27.872Z,0.68
2023-04-29T11:09:05.841Z,0.57
2023-04-29T11:11:47.257Z,1.15
2023-04-29T11:14:18.238Z,0.40
2023-04-29T11:16:55.562Z,0.50
2023-04-29T11:19:27.319Z,0.65
2023-04-29T11:22:17.947Z,0.47
2023-04-29T11:24:56.049Z,0.70
2023-04-29T11:27:28.405Z,0.75
2023-04-29T11:29:59.460Z,0.75
2023-04-29T11:32:34.041Z,0.85
2023-04-29T11:35:14.625Z,0.75
2023-04-29T11:37:46.350Z,0.40
2023-04-29T11:40:17.595Z,0.80
2023-04-29T11:42:49.606Z,0.70
2023-04-29T11:45:21.315Z,0.43
2023-04-29T11:47:55.963Z,0.50
2023-04-29T11:50:26.338Z,0.98
2023-04-29T11:52:56.183Z,0.52
2023-04-29T11:55:25.946Z,0.55
2023-04-29T11:57:55.595Z,0.65
2023-04-29T12:00:25.334Z,0.55
2023-04-29T12:02:57.756Z,0.47
2023-04-29T12:05:29.190Z,0.40
2023-04-29T12:07:58.965Z,0.65
2023-04-29T12:10:28.733Z,0.73
2023-04-29T12:12:59.509Z,0.70
2023-04-29T12:15:29.780Z,0.70
2023-04-29T12:18:03.826Z,0.80
2023-04-29T12:20:33.942Z,0.40
2023-04-29T12:23:15.184Z,0.80
2023-04-29T12:25:45.017Z,0.40
2023-04-29T12:28:19.673Z,0.40
2023-04-29T12:30:49.967Z,0.70
2023-04-29T12:33:24.003Z,0.50
2023-04-29T12:35:54.182Z,0.57
2023-04-29T12:38:24.677Z,0.50
2023-04-29T12:40:54.313Z,0.52
2023-04-29T12:43:29.356Z,0.73
2023-04-29T12:46:05.307Z,0.82
2023-04-29T12:48:41.520Z,0.88
2023-04-29T12:51:12.774Z,0.75
2023-04-29T12:53:42.420Z,1.13
2023-04-29T12:56:14.693Z,1.08
2023-04-29T12:58:44.446Z,0.95
2023-04-29T13:01:16.589Z,0.60
2023-04-29T13:03:51.706Z,0.90
2023-04-29T13:06:21.708Z,0.65
2023-04-29T13:08:51.645Z,0.73
2023-04-29T13:11:21.314Z,0.98
2023-04-29T13:13:51.799Z,0.65
2023-04-29T13:16:21.599Z,1.23
2023-04-29T13:19:12.354Z,0.80
2023-04-29T13:21:43.613Z,1.00
2023-04-29T13:24:13.369Z,0.50
2023-04-29T13:26:43.042Z,0.45
2023-04-29T13:29:12.809Z,1.20
2023-04-29T13:31:44.157Z,0.93
2023-04-29T13:34:16.668Z,1.05
2023-04-29T13:36:46.422Z,0.98
2023-04-29T13:39:16.430Z,0.85
2023-04-29T13:41:46.690Z,1.30
2023-04-29T13:44:24.896Z,0.75
2023-04-29T13:47:01.649Z,0.65
2023-04-29T13:55:38.935Z,0.70
2023-04-29T14:00:54.552Z,0.50
2023-04-29T14:03:10.110Z,0.68
2023-04-29T14:05:42.544Z,0.70
2023-04-29T14:08:12.479Z,0.70
2023-04-29T14:10:43.574Z,0.40
2023-04-29T14:13:13.201Z,0.60
2023-04-29T14:15:42.934Z,0.40
2023-04-29T14:18:12.640Z,0.40
2023-04-29T14:20:44.957Z,0.55
2023-04-29T14:23:14.667Z,0.70
2023-04-29T14:25:44.350Z,0.50
2023-04-29T14:28:14.225Z,0.20
2023-04-29T14:30:46.120Z,0.75
2023-04-29T14:33:16.799Z,0.47
2023-04-29T14:35:49.257Z,0.40
2023-04-29T14:38:18.913Z,0.63
2023-04-29T14:40:49.063Z,0.73
2023-04-29T14:43:19.135Z,0.55
2023-04-29T14:45:48.956Z,0.50
2023-04-29T14:48:18.611Z,0.70
2023-04-29T14:50:50.893Z,0.40
2023-04-29T14:53:21.628Z,0.60
2023-04-29T14:55:52.592Z,0.40
2023-04-29T14:58:22.372Z,0.13
2023-04-29T15:00:52.232Z,0.30
2023-04-29T15:03:23.066Z,0.20
2023-04-29T15:05:55.757Z,0.13
2023-04-29T15:08:25.450Z,0.13
2023-04-29T15:10:55.636Z,0.10
2023-04-29T15:13:25.251Z,0.20
2023-04-29T15:15:55.102Z,0.30
2023-04-29T15:18:26.536Z,0.20
2023-04-29T15:20:59.435Z,0.17
2023-04-29T15:23:29.261Z,0.40
2023-04-29T15:25:59.593Z,0.25
2023-04-29T15:28:29.249Z,0.40
2023-04-29T15:31:00.014Z,0.20
2023-04-29T15:33:29.679Z,0.17
2023-04-29T15:36:03.745Z,0.22
2023-04-29T15:38:33.383Z,0.40
2023-04-29T15:41:04.659Z,0.50
2023-04-29T15:43:34.881Z,0.22
2023-04-29T15:46:04.722Z,0.40
2023-04-29T15:48:35.524Z,0.20
2023-04-29T15:51:10.366Z,0.52
2023-04-29T15:53:40.126Z,0.30
2023-04-29T15:56:09.971Z,0.30
2023-04-29T15:58:39.772Z,0.40
2023-04-29T16:01:09.445Z,0.22
2023-04-29T16:03:42.046Z,0.10
2023-04-29T16:06:14.655Z,0.22
2023-04-29T16:08:44.457Z,0.20
2023-04-29T16:11:14.076Z,0.17
2023-04-29T16:13:43.861Z,0.30
2023-04-29T16:16:13.621Z,0.13
2023-04-29T16:18:43.385Z,0.20
2023-04-29T16:21:15.648Z,0.25
2023-04-29T16:23:45.716Z,0.30
2023-04-29T16:26:15.404Z,0.25
2023-04-29T16:28:45.409Z,0.05
2023-04-29T16:31:15.838Z,0.10
2023-04-29T16:33:45.888Z,0.15
2023-04-29T16:36:18.210Z,0.10
2023-04-29T16:38:47.924Z,0.05
2023-04-29T16:41:17.764Z,0.10
2023-04-29T16:43:47.411Z,0.10
2023-04-29T16:46:17.183Z,0.20
2023-04-29T16:48:46.920Z,0.10
2023-04-29T16:51:19.892Z,0.08
2023-04-29T16:53:49.530Z,0.15
2023-04-29T16:56:19.189Z,0.20
2023-04-29T16:58:48.814Z,0.20
2023-04-29T17:01:19.909Z,0.22
2023-04-29T17:03:50.087Z,0.20
2023-04-29T17:06:22.406Z,0.20
2023-04-29T17:08:53.532Z,0.10
2023-04-29T17:11:23.192Z,0.30
2023-04-29T17:13:54.020Z,0.10
2023-04-29T17:16:23.755Z,0.10
2023-04-29T17:18:53.715Z,0.15
2023-04-29T17:21:26.169Z,0.20
2023-04-29T17:23:56.013Z,0.32
2023-04-29T17:26:25.769Z,0.22
2023-04-29T17:28:55.484Z,0.50
2023-04-29T17:31:31.021Z,0.20
2023-04-29T17:34:05.616Z,0.38
2023-04-29T17:36:37.884Z,0.10
2023-04-29T17:39:10.726Z,0.70
2023-04-29T17:41:40.388Z,0.05
2023-04-29T17:44:10.908Z,0.03
2023-04-29T17:46:43.752Z,0.20
2023-04-29T17:49:13.399Z,0.10
2023-04-29T17:51:45.960Z,0.20
2023-04-29T17:54:15.710Z,0.13
2023-04-29T17:56:45.714Z,0.10
2023-04-29T17:59:15.442Z,0.10
2023-04-29T18:01:45.356Z,0.28
2023-04-29T18:04:15.469Z,0.20
2023-04-29T18:06:47.727Z,0.20
2023-04-29T18:09:18.791Z,0.13
2023-04-29T18:11:49.006Z,0.10
2023-04-29T18:14:18.675Z,0.10
2023-04-29T18:16:48.717Z,0.45
2023-04-29T18:19:18.522Z,0.63
2023-04-29T18:21:51.200Z,0.30
2023-04-29T18:24:20.861Z,0.65
2023-04-29T18:26:50.771Z,0.22
2023-04-29T18:29:20.412Z,0.20
2023-04-29T18:31:50.122Z,0.30
2023-04-29T18:34:19.862Z,0.25
2023-04-29T18:36:52.541Z,0.40
2023-04-29T18:39:22.255Z,0.20
2023-04-29T18:41:52.034Z,0.10
2023-04-29T18:44:21.757Z,0.10
2023-04-29T18:46:51.435Z,0.20
2023-04-29T18:49:21.367Z,0.25
2023-04-29T18:51:53.608Z,0.10
2023-04-29T18:54:23.305Z,0.10
2023-04-29T18:56:53.128Z,0.20
2023-04-29T18:59:22.794Z,0.05
2023-04-29T19:01:52.698Z,0.13
2023-04-29T19:04:22.710Z,0.30
2023-04-29T19:06:55.017Z,0.20
2023-04-29T19:09:24.807Z,0.20
2023-04-29T19:11:54.464Z,0.10
2023-04-29T19:14:24.108Z,0.10
2023-04-29T19:16:54.973Z,0.10
2023-04-29T19:19:24.857Z,0.20
2023-04-29T19:21:57.103Z,0.10
2023-04-29T19:24:28.795Z,0.25
2023-04-29T19:26:58.825Z,0.20
2023-04-29T19:29:28.546Z,0.25
2023-04-29T19:31:58.310Z,0.00
2023-04-29T19:34:28.107Z,0.17
2023-04-29T19:37:01.300Z,0.03
2023-04-29T19:39:31.078Z,0.00
2023-04-29T19:42:00.904Z,0.20
2023-04-29T19:44:31.023Z,0.10
2023-04-29T19:47:00.936Z,0.45
2023-04-29T19:49:31.132Z,0.30
2023-04-29T19:52:03.814Z,0.10
2023-04-29T19:54:34.864Z,0.20
2023-04-29T19:57:05.875Z,0.10
2023-04-29T19:59:35.678Z,0.10
2023-04-29T20:02:05.559Z,0.30
2023-04-29T20:04:35.262Z,0.10
2023-04-29T20:07:07.537Z,0.00
2023-04-29T20:09:37.452Z,0.82
2023-04-29T20:12:07.312Z,0.10
2023-04-29T20:14:36.978Z,0.50
2023-04-29T20:17:06.669Z,0.45
2023-04-29T20:19:36.482Z,0.05
2023-04-29T20:22:08.740Z,0.50
2023-04-29T20:24:38.468Z,0.05
2023-04-29T20:27:08.124Z,0.22
2023-04-29T20:29:38.060Z,0.00
2023-04-29T20:32:08.213Z,0.10
2023-04-29T20:34:37.998Z,0.00
2023-04-29T20:37:10.252Z,0.30
2023-04-29T20:39:39.936Z,0.45
2023-04-29T20:42:09.574Z,0.70
2023-04-29T20:44:39.829Z,0.10
2023-04-29T20:47:10.648Z,0.88
2023-04-29T20:49:40.388Z,0.20
2023-04-29T20:52:12.685Z,0.13
2023-04-29T20:54:42.317Z,0.20
2023-04-29T20:57:12.027Z,0.20
2023-04-29T20:59:41.809Z,0.00
2023-04-29T21:02:11.467Z,0.30
2023-04-29T21:04:43.937Z,0.15
2023-04-29T21:07:16.218Z,0.00
2023-04-29T21:09:46.196Z,0.10
2023-04-29T21:12:16.139Z,0.10
2023-04-29T21:14:45.757Z,0.05
2023-04-29T21:17:16.522Z,0.10
2023-04-29T21:19:46.193Z,0.52
2023-04-29T21:22:18.519Z,0.17
2023-04-29T21:24:48.163Z,0.10
2023-04-29T21:27:17.940Z,0.10
2023-04-29T21:29:47.581Z,0.10
2023-04-29T21:32:21.831Z,0.10
2023-04-29T21:34:51.735Z,0.20
2023-04-29T21:37:24.754Z,0.20
2023-04-29T21:39:57.580Z,0.35
2023-04-29T21:42:28.291Z,0.00
2023-04-29T21:45:00.279Z,0.20
2023-04-29T21:47:33.496Z,0.15
2023-04-29T21:50:03.578Z,0.10
2023-04-29T21:52:36.209Z,0.35
2023-04-29T21:55:06.661Z,0.30
2023-04-29T21:57:44.148Z,0.20
2023-04-29T22:00:33.954Z,0.03
2023-04-29T22:03:04.459Z,0.20
2023-04-29T22:05:34.691Z,0.25
2023-04-29T22:08:07.906Z,0.15
2023-04-29T22:10:40.243Z,0.38
2023-04-29T22:13:10.669Z,0.10
2023-04-29T22:15:40.606Z,0.20
2023-04-29T22:18:10.338Z,0.20
2023-04-29T22:20:39.971Z,0.10
2023-04-29T22:23:12.584Z,0.20
2023-04-29T22:25:42.242Z,0.20
2023-04-29T22:28:11.943Z,0.10
2023-04-29T22:30:43.088Z,0.20
2023-04-29T22:33:13.292Z,0.17
2023-04-29T22:35:42.974Z,0.28
2023-04-29T22:38:15.496Z,0.10
2023-04-29T22:40:46.364Z,0.40
2023-04-29T22:43:17.042Z,0.10
2023-04-29T22:45:53.387Z,0.38
2023-04-29T22:48:25.119Z,0.30
2023-04-29T22:50:57.325Z,0.38
2023-04-29T22:53:29.813Z,0.20
2023-04-29T22:56:03.305Z,0.30
2023-04-29T22:58:33.855Z,0.20
2023-04-29T23:01:05.326Z,0.10
2023-04-29T23:03:34.994Z,0.10
2023-04-29T23:06:04.917Z,1.00
2023-04-29T23:08:37.202Z,0.30
2023-04-29T23:11:07.021Z,0.10
2023-04-29T23:13:36.673Z,0.10
2023-04-29T23:16:07.970Z,0.23
2023-04-29T23:18:39.187Z,0.10
2023-04-29T23:21:08.987Z,0.77
2023-04-29T23:23:41.312Z,0.10
2023-04-29T23:26:11.105Z,0.10
2023-04-29T23:28:40.854Z,0.47
2023-04-29T23:31:10.596Z,0.30
2023-04-29T23:33:40.290Z,0.10
2023-04-29T23:36:10.129Z,0.68
2023-04-29T23:38:42.474Z,0.35
2023-04-29T23:41:12.274Z,0.30
2023-04-29T23:43:41.981Z,0.10
2023-04-29T23:46:11.873Z,0.27
2023-04-29T23:48:41.513Z,0.13
2023-04-29T23:51:11.197Z,0.30
2023-04-29T23:53:43.426Z,0.80
2023-04-29T23:56:13.190Z,0.30
2023-04-29T23:58:42.971Z,0.10
